Terminal Aerodrome Forecast
Issued by NWS Cleveland, OH

Home | Current Version | Previous Version | Graphics & Text | Print | Product List | Glossary On
Versions: 1 2 3 4 5 6 7 8 9 10 11 12 13 14 15 16 17 18 19 20 21 22 23
000
FTUS41 KCLE 032300
TAFYNG
TAF
KYNG 032325Z 0400/0424 18011KT 2SM -RA BR OVC006
     FM040800 28006KT 2SM -SN BR OVC006
     FM041100 29005KT 4SM -SN BR OVC015
     FM041300 29005KT 4SM BR OVC015
     FM041700 28008KT 6SM BR OVC015=

USA.gov is the U.S. government's official web portal to all federal, state and local government web resources and services.